sensor_id;sensor_type;location;lat;lon;timestamp;pressure;altitude;pressure_sealevel;temperature;humidity
84593;BME280;74832;51.656;5.298;2024-01-07T00:00:02;101766.17;;;16.30;61.83
84593;BME280;74832;51.656;5.298;2024-01-07T00:00:33;101765.77;;;16.33;61.84
84593;BME280;74832;51.656;5.298;2024-01-07T00:01:03;101764.55;;;16.41;61.63
84593;BME280;74832;51.656;5.298;2024-01-07T00:01:34;101767.25;;;16.36;61.73
84593;BME280;74832;51.656;5.298;2024-01-07T00:02:04;101766.48;;;16.37;61.65
84593;BME280;74832;51.656;5.298;2024-01-07T00:02:34;101770.43;;;16.30;61.87
84593;BME280;74832;51.656;5.298;2024-01-07T00:03:05;101768.96;;;16.28;61.81
84593;BME280;74832;51.656;5.298;2024-01-07T00:03:35;101766.96;;;16.36;61.63
84593;BME280;74832;51.656;5.298;2024-01-07T00:04:05;101770.09;;;16.33;61.65
84593;BME280;74832;51.656;5.298;2024-01-07T00:04:36;101765.74;;;16.38;61.64
84593;BME280;74832;51.656;5.298;2024-01-07T00:05:07;101766.94;;;16.38;61.64
84593;BME280;74832;51.656;5.298;2024-01-07T00:05:37;101766.69;;;16.34;61.63
84593;BME280;74832;51.656;5.298;2024-01-07T00:06:09;101772.94;;;16.31;61.71
84593;BME280;74832;51.656;5.298;2024-01-07T00:06:40;101768.07;;;16.36;61.62
84593;BME280;74832;51.656;5.298;2024-01-07T00:07:10;101767.60;;;16.37;61.55
84593;BME280;74832;51.656;5.298;2024-01-07T00:07:41;101771.59;;;16.36;61.63
84593;BME280;74832;51.656;5.298;2024-01-07T00:08:11;101772.71;;;16.42;61.38
84593;BME280;74832;51.656;5.298;2024-01-07T00:08:41;101774.50;;;16.42;61.47
84593;BME280;74832;51.656;5.298;2024-01-07T00:09:12;101770.96;;;16.36;61.46
84593;BME280;74832;51.656;5.298;2024-01-07T00:09:42;101772.18;;;16.37;61.54
84593;BME280;74832;51.656;5.298;2024-01-07T00:10:13;101777.08;;;16.31;61.62
84593;BME280;74832;51.656;5.298;2024-01-07T00:10:43;101776.31;;;16.36;61.50
84593;BME280;74832;51.656;5.298;2024-01-07T00:11:14;101775.12;;;16.27;61.71
84593;BME280;74832;51.656;5.298;2024-01-07T00:11:44;101777.13;;;16.32;61.56
84593;BME280;74832;51.656;5.298;2024-01-07T00:12:15;101776.17;;;16.32;61.62
84593;BME280;74832;51.656;5.298;2024-01-07T00:12:45;101776.06;;;16.24;61.79
84593;BME280;74832;51.656;5.298;2024-01-07T00:13:16;101774.46;;;16.27;61.71
84593;BME280;74832;51.656;5.298;2024-01-07T00:13:46;101779.08;;;16.25;61.67
84593;BME280;74832;51.656;5.298;2024-01-07T00:14:16;101778.79;;;16.28;61.73
84593;BME280;74832;51.656;5.298;2024-01-07T00:14:47;101780.24;;;16.31;61.54
84593;BME280;74832;51.656;5.298;2024-01-07T00:15:17;101777.88;;;16.21;61.85
84593;BME280;74832;51.656;5.298;2024-01-07T00:15:48;101777.44;;;16.32;61.53
84593;BME280;74832;51.656;5.298;2024-01-07T00:16:18;101780.46;;;16.29;61.66
84593;BME280;74832;51.656;5.298;2024-01-07T00:16:48;101780.64;;;16.27;61.67
84593;BME280;74832;51.656;5.298;2024-01-07T00:17:19;101781.36;;;16.23;61.78
84593;BME280;74832;51.656;5.298;2024-01-07T00:17:49;101782.00;;;16.34;61.49
84593;BME280;74832;51.656;5.298;2024-01-07T00:18:20;101785.72;;;16.34;61.46
84593;BME280;74832;51.656;5.298;2024-01-07T00:18:50;101784.34;;;16.39;61.28
84593;BME280;74832;51.656;5.298;2024-01-07T00:19:20;101786.84;;;16.36;61.36
84593;BME280;74832;51.656;5.298;2024-01-07T00:19:51;101787.68;;;16.32;61.35
84593;BME280;74832;51.656;5.298;2024-01-07T00:20:21;101790.60;;;16.27;61.50
84593;BME280;74832;51.656;5.298;2024-01-07T00:20:51;101788.34;;;16.29;61.49
84593;BME280;74832;51.656;5.298;2024-01-07T00:21:23;101790.41;;;16.36;61.35
84593;BME280;74832;51.656;5.298;2024-01-07T00:21:53;101793.63;;;16.31;61.50
84593;BME280;74832;51.656;5.298;2024-01-07T00:22:23;101792.72;;;16.32;61.39
84593;BME280;74832;51.656;5.298;2024-01-07T00:22:54;101789.46;;;16.26;61.48
84593;BME280;74832;51.656;5.298;2024-01-07T00:23:24;101793.23;;;16.23;61.55
84593;BME280;74832;51.656;5.298;2024-01-07T00:23:55;101790.21;;;16.28;61.37
84593;BME280;74832;51.656;5.298;2024-01-07T00:24:25;101791.87;;;16.21;61.45
84593;BME280;74832;51.656;5.298;2024-01-07T00:24:56;101788.16;;;16.25;61.53
84593;BME280;74832;51.656;5.298;2024-01-07T00:25:26;101790.36;;;16.20;61.66
84593;BME280;74832;51.656;5.298;2024-01-07T00:25:56;101787.54;;;16.26;61.40
84593;BME280;74832;51.656;5.298;2024-01-07T00:26:27;101790.37;;;16.28;61.38
84593;BME280;74832;51.656;5.298;2024-01-07T00:26:57;101792.50;;;16.28;61.28
84593;BME280;74832;51.656;5.298;2024-01-07T00:27:28;101792.65;;;16.33;61.14
84593;BME280;74832;51.656;5.298;2024-01-07T00:27:58;101789.30;;;16.31;61.19
84593;BME280;74832;51.656;5.298;2024-01-07T00:28:28;101793.70;;;16.28;61.21
84593;BME280;74832;51.656;5.298;2024-01-07T00:28:59;101791.94;;;16.30;61.26
84593;BME280;74832;51.656;5.298;2024-01-07T00:29:29;101794.41;;;16.26;61.28
84593;BME280;74832;51.656;5.298;2024-01-07T00:29:59;101793.45;;;16.30;61.25
84593;BME280;74832;51.656;5.298;2024-01-07T00:30:30;101792.89;;;16.19;61.50
84593;BME280;74832;51.656;5.298;2024-01-07T00:31:00;101792.94;;;16.19;61.53
84593;BME280;74832;51.656;5.298;2024-01-07T00:31:30;101793.51;;;16.25;61.28
84593;BME280;74832;51.656;5.298;2024-01-07T00:32:01;101791.48;;;16.25;61.38
84593;BME280;74832;51.656;5.298;2024-01-07T00:32:31;101798.15;;;16.25;61.33
84593;BME280;74832;51.656;5.298;2024-01-07T00:33:03;101797.36;;;16.24;61.44
84593;BME280;74832;51.656;5.298;2024-01-07T00:33:34;101795.72;;;16.25;61.03
84593;BME280;74832;51.656;5.298;2024-01-07T00:34:04;101799.39;;;16.31;61.13
84593;BME280;74832;51.656;5.298;2024-01-07T00:34:35;101800.88;;;16.28;61.27
84593;BME280;74832;51.656;5.298;2024-01-07T00:35:06;101804.88;;;16.26;61.28
84593;BME280;74832;51.656;5.298;2024-01-07T00:35:36;101802.56;;;16.32;61.05
84593;BME280;74832;51.656;5.298;2024-01-07T00:36:07;101806.83;;;16.29;61.13
84593;BME280;74832;51.656;5.298;2024-01-07T00:36:37;101804.26;;;16.30;61.09
84593;BME280;74832;51.656;5.298;2024-01-07T00:37:07;101804.88;;;16.26;61.33
84593;BME280;74832;51.656;5.298;2024-01-07T00:37:38;101804.49;;;16.30;61.08
84593;BME280;74832;51.656;5.298;2024-01-07T00:38:08;101805.95;;;16.30;61.11
84593;BME280;74832;51.656;5.298;2024-01-07T00:38:38;101804.59;;;16.30;61.02
84593;BME280;74832;51.656;5.298;2024-01-07T00:39:09;101806.29;;;16.30;60.93
84593;BME280;74832;51.656;5.298;2024-01-07T00:39:39;101804.90;;;16.26;61.10
84593;BME280;74832;51.656;5.298;2024-01-07T00:40:11;101805.05;;;16.24;61.15
84593;BME280;74832;51.656;5.298;2024-01-07T00:40:41;101806.48;;;16.24;61.17
84593;BME280;74832;51.656;5.298;2024-01-07T00:41:12;101810.65;;;16.22;61.28
84593;BME280;74832;51.656;5.298;2024-01-07T00:41:42;101805.69;;;16.26;61.07
84593;BME280;74832;51.656;5.298;2024-01-07T00:42:12;101807.72;;;16.20;61.24
84593;BME280;74832;51.656;5.298;2024-01-07T00:42:43;101805.38;;;16.14;61.46
84593;BME280;74832;51.656;5.298;2024-01-07T00:43:13;101811.23;;;16.19;61.26
84593;BME280;74832;51.656;5.298;2024-01-07T00:43:43;101807.12;;;16.14;61.25
84593;BME280;74832;51.656;5.298;2024-01-07T00:44:14;101806.08;;;16.12;61.20
84593;BME280;74832;51.656;5.298;2024-01-07T00:44:44;101810.32;;;16.20;61.12
84593;BME280;74832;51.656;5.298;2024-01-07T00:45:15;101809.51;;;16.16;61.13
84593;BME280;74832;51.656;5.298;2024-01-07T00:45:45;101808.71;;;16.15;61.14
84593;BME280;74832;51.656;5.298;2024-01-07T00:46:15;101811.52;;;16.17;61.05
84593;BME280;74832;51.656;5.298;2024-01-07T00:46:46;101807.79;;;16.19;61.01
84593;BME280;74832;51.656;5.298;2024-01-07T00:47:16;101808.24;;;16.18;60.86
84593;BME280;74832;51.656;5.298;2024-01-07T00:47:47;101810.89;;;16.20;60.80
84593;BME280;74832;51.656;5.298;2024-01-07T00:48:17;101808.26;;;16.25;60.75
84593;BME280;74832;51.656;5.298;2024-01-07T00:48:47;101810.74;;;16.22;60.79
84593;BME280;74832;51.656;5.298;2024-01-07T00:49:18;101811.56;;;16.22;60.85
84593;BME280;74832;51.656;5.298;2024-01-07T00:49:48;101810.95;;;16.25;60.75
84593;BME280;74832;51.656;5.298;2024-01-07T00:50:18;101810.66;;;16.18;60.92
84593;BME280;74832;51.656;5.298;2024-01-07T00:50:49;101810.36;;;16.19;60.89
84593;BME280;74832;51.656;5.298;2024-01-07T00:51:19;101810.92;;;16.18;60.94
84593;BME280;74832;51.656;5.298;2024-01-07T00:51:50;101812.10;;;16.19;60.96
84593;BME280;74832;51.656;5.298;2024-01-07T00:52:20;101811.76;;;16.19;60.71
84593;BME280;74832;51.656;5.298;2024-01-07T00:52:50;101814.17;;;16.18;60.79
84593;BME280;74832;51.656;5.298;2024-01-07T00:53:21;101814.38;;;16.22;60.71
84593;BME280;74832;51.656;5.298;2024-01-07T00:53:51;101812.88;;;16.10;60.98
84593;BME280;74832;51.656;5.298;2024-01-07T00:54:22;101812.54;;;16.11;60.95
84593;BME280;74832;51.656;5.298;2024-01-07T00:54:52;101816.57;;;16.17;60.93
84593;BME280;74832;51.656;5.298;2024-01-07T00:55:22;101819.70;;;16.16;60.87
84593;BME280;74832;51.656;5.298;2024-01-07T00:55:53;101817.75;;;16.12;60.94
84593;BME280;74832;51.656;5.298;2024-01-07T00:56:25;101819.24;;;16.16;60.77
84593;BME280;74832;51.656;5.298;2024-01-07T00:56:56;101823.33;;;16.17;60.84
84593;BME280;74832;51.656;5.298;2024-01-07T00:57:26;101819.42;;;16.08;60.97
84593;BME280;74832;51.656;5.298;2024-01-07T00:57:56;101824.34;;;16.13;60.93
84593;BME280;74832;51.656;5.298;2024-01-07T00:58:27;101825.08;;;16.08;60.94
84593;BME280;74832;51.656;5.298;2024-01-07T00:58:57;101823.00;;;16.06;60.93
84593;BME280;74832;51.656;5.298;2024-01-07T00:59:28;101817.49;;;16.13;60.74
84593;BME280;74832;51.656;5.298;2024-01-07T00:59:58;101823.61;;;16.17;60.66
84593;BME280;74832;51.656;5.298;2024-01-07T01:00:29;101820.89;;;16.09;60.76
84593;BME280;74832;51.656;5.298;2024-01-07T01:00:59;101819.00;;;16.07;60.69
84593;BME280;74832;51.656;5.298;2024-01-07T01:01:29;101825.75;;;16.05;60.73
84593;BME280;74832;51.656;5.298;2024-01-07T01:02:00;101821.10;;;16.06;60.71
84593;BME280;74832;51.656;5.298;2024-01-07T01:02:30;101822.64;;;16.08;60.50
84593;BME280;74832;51.656;5.298;2024-01-07T01:03:01;101819.50;;;15.95;60.96
84593;BME280;74832;51.656;5.298;2024-01-07T01:03:31;101822.66;;;15.99;61.05
84593;BME280;74832;51.656;5.298;2024-01-07T01:04:01;101823.50;;;15.99;60.75
84593;BME280;74832;51.656;5.298;2024-01-07T01:04:32;101824.26;;;16.08;60.63
84593;BME280;74832;51.656;5.298;2024-01-07T01:05:03;101822.00;;;16.10;60.59
84593;BME280;74832;51.656;5.298;2024-01-07T01:05:33;101826.16;;;16.05;60.66
84593;BME280;74832;51.656;5.298;2024-01-07T01:06:04;101823.84;;;16.03;60.85
84593;BME280;74832;51.656;5.298;2024-01-07T01:06:34;101823.29;;;16.03;60.72
84593;BME280;74832;51.656;5.298;2024-01-07T01:07:05;101823.52;;;16.08;60.65
84593;BME280;74832;51.656;5.298;2024-01-07T01:07:35;101822.46;;;16.13;60.48
84593;BME280;74832;51.656;5.298;2024-01-07T01:08:06;101822.77;;;16.15;60.27
84593;BME280;74832;51.656;5.298;2024-01-07T01:08:36;101826.51;;;16.16;60.40
84593;BME280;74832;51.656;5.298;2024-01-07T01:09:06;101822.79;;;16.07;60.53
84593;BME280;74832;51.656;5.298;2024-01-07T01:09:37;101825.79;;;16.08;60.45
84593;BME280;74832;51.656;5.298;2024-01-07T01:10:08;101825.97;;;16.11;60.53
84593;BME280;74832;51.656;5.298;2024-01-07T01:10:39;101822.39;;;16.11;60.35
84593;BME280;74832;51.656;5.298;2024-01-07T01:11:09;101825.62;;;16.15;60.35
84593;BME280;74832;51.656;5.298;2024-01-07T01:11:40;101825.21;;;16.13;60.38
84593;BME280;74832;51.656;5.298;2024-01-07T01:12:10;101828.81;;;16.12;60.37
84593;BME280;74832;51.656;5.298;2024-01-07T01:12:40;101831.17;;;16.16;60.34
84593;BME280;74832;51.656;5.298;2024-01-07T01:13:11;101828.58;;;16.09;60.39
84593;BME280;74832;51.656;5.298;2024-01-07T01:13:41;101827.69;;;16.01;60.62
84593;BME280;74832;51.656;5.298;2024-01-07T01:14:12;101826.85;;;16.06;60.52
84593;BME280;74832;51.656;5.298;2024-01-07T01:14:42;101828.91;;;16.10;60.42
84593;BME280;74832;51.656;5.298;2024-01-07T01:15:12;101829.47;;;16.13;60.26
84593;BME280;74832;51.656;5.298;2024-01-07T01:15:43;101831.04;;;16.09;60.33
84593;BME280;74832;51.656;5.298;2024-01-07T01:16:13;101831.17;;;16.03;60.51
84593;BME280;74832;51.656;5.298;2024-01-07T01:16:43;101827.25;;;16.08;60.40
84593;BME280;74832;51.656;5.298;2024-01-07T01:17:14;101830.10;;;16.07;60.39
84593;BME280;74832;51.656;5.298;2024-01-07T01:17:44;101832.56;;;16.13;60.23
84593;BME280;74832;51.656;5.298;2024-01-07T01:18:15;101828.12;;;16.13;60.06
84593;BME280;74832;51.656;5.298;2024-01-07T01:18:45;101832.15;;;16.17;59.96
84593;BME280;74832;51.656;5.298;2024-01-07T01:19:16;101830.64;;;16.10;60.17
84593;BME280;74832;51.656;5.298;2024-01-07T01:19:47;101831.59;;;16.04;60.28
84593;BME280;74832;51.656;5.298;2024-01-07T01:20:17;101831.29;;;15.98;60.42
84593;BME280;74832;51.656;5.298;2024-01-07T01:20:48;101828.57;;;16.01;60.43
84593;BME280;74832;51.656;5.298;2024-01-07T01:21:18;101831.44;;;16.03;60.50
84593;BME280;74832;51.656;5.298;2024-01-07T01:21:48;101833.45;;;15.97;60.54
84593;BME280;74832;51.656;5.298;2024-01-07T01:22:19;101829.15;;;15.98;60.48
84593;BME280;74832;51.656;5.298;2024-01-07T01:22:49;101830.38;;;16.03;60.23
84593;BME280;74832;51.656;5.298;2024-01-07T01:23:19;101833.45;;;16.07;60.17
84593;BME280;74832;51.656;5.298;2024-01-07T01:23:52;101831.64;;;15.99;60.30
84593;BME280;74832;51.656;5.298;2024-01-07T01:24:22;101830.85;;;15.99;60.50
84593;BME280;74832;51.656;5.298;2024-01-07T01:24:53;101834.09;;;16.00;60.33
84593;BME280;74832;51.656;5.298;2024-01-07T01:25:23;101832.65;;;15.97;60.42
84593;BME280;74832;51.656;5.298;2024-01-07T01:25:54;101835.93;;;15.98;60.28
84593;BME280;74832;51.656;5.298;2024-01-07T01:26:24;101830.35;;;15.90;60.45
84593;BME280;74832;51.656;5.298;2024-01-07T01:26:54;101833.79;;;15.88;60.66
84593;BME280;74832;51.656;5.298;2024-01-07T01:27:25;101833.76;;;15.96;60.41
84593;BME280;74832;51.656;5.298;2024-01-07T01:27:56;101830.98;;;15.96;60.40
84593;BME280;74832;51.656;5.298;2024-01-07T01:28:26;101834.89;;;16.01;60.28
84593;BME280;74832;51.656;5.298;2024-01-07T01:28:56;101833.20;;;15.95;60.40
84593;BME280;74832;51.656;5.298;2024-01-07T01:29:27;101832.25;;;15.83;60.69
84593;BME280;74832;51.656;5.298;2024-01-07T01:29:57;101835.35;;;15.90;60.66
84593;BME280;74832;51.656;5.298;2024-01-07T01:30:27;101835.82;;;15.95;60.40
84593;BME280;74832;51.656;5.298;2024-01-07T01:30:58;101834.43;;;15.92;60.47
84593;BME280;74832;51.656;5.298;2024-01-07T01:31:28;101835.33;;;15.94;60.46
84593;BME280;74832;51.656;5.298;2024-01-07T01:31:59;101835.58;;;15.83;60.77
84593;BME280;74832;51.656;5.298;2024-01-07T01:32:29;101834.20;;;15.87;60.68
84593;BME280;74832;51.656;5.298;2024-01-07T01:32:59;101835.99;;;15.89;60.73
84593;BME280;74832;51.656;5.298;2024-01-07T01:33:30;101834.65;;;15.88;60.70
84593;BME280;74832;51.656;5.298;2024-01-07T01:34:00;101839.77;;;15.90;60.69
84593;BME280;74832;51.656;5.298;2024-01-07T01:34:31;101838.46;;;15.95;60.55
84593;BME280;74832;51.656;5.298;2024-01-07T01:35:02;101839.99;;;15.97;60.43
84593;BME280;74832;51.656;5.298;2024-01-07T01:35:32;101839.48;;;15.97;60.47
84593;BME280;74832;51.656;5.298;2024-01-07T01:36:04;101839.95;;;15.87;60.71
84593;BME280;74832;51.656;5.298;2024-01-07T01:36:35;101843.78;;;15.87;60.78
84593;BME280;74832;51.656;5.298;2024-01-07T01:37:05;101844.73;;;15.89;60.61
84593;BME280;74832;51.656;5.298;2024-01-07T01:37:35;101846.59;;;15.89;60.67
84593;BME280;74832;51.656;5.298;2024-01-07T01:38:10;101851.29;;;15.84;60.72
84593;BME280;74832;51.656;5.298;2024-01-07T01:38:40;101849.51;;;15.84;60.84
84593;BME280;74832;51.656;5.298;2024-01-07T01:39:10;101849.85;;;15.89;60.66
84593;BME280;74832;51.656;5.298;2024-01-07T01:39:41;101852.21;;;15.83;60.86
84593;BME280;74832;51.656;5.298;2024-01-07T01:40:11;101850.90;;;15.85;60.79
84593;BME280;74832;51.656;5.298;2024-01-07T01:40:42;101853.42;;;15.86;60.78
84593;BME280;74832;51.656;5.298;2024-01-07T01:41:12;101855.71;;;15.85;60.66
84593;BME280;74832;51.656;5.298;2024-01-07T01:41:43;101853.26;;;15.87;60.59
84593;BME280;74832;51.656;5.298;2024-01-07T01:42:13;101857.38;;;15.84;60.63
84593;BME280;74832;51.656;5.298;2024-01-07T01:42:43;101856.97;;;15.84;60.61
84593;BME280;74832;51.656;5.298;2024-01-07T01:43:22;101856.18;;;15.82;60.59
84593;BME280;74832;51.656;5.298;2024-01-07T01:43:56;101855.24;;;15.84;60.51
84593;BME280;74832;51.656;5.298;2024-01-07T01:44:27;101857.00;;;15.82;60.52
84593;BME280;74832;51.656;5.298;2024-01-07T01:44:57;101858.28;;;15.79;60.54
84593;BME280;74832;51.656;5.298;2024-01-07T01:45:28;101858.03;;;15.78;60.65
84593;BME280;74832;51.656;5.298;2024-01-07T01:45:58;101860.09;;;15.81;60.46
84593;BME280;74832;51.656;5.298;2024-01-07T01:46:29;101856.52;;;15.80;60.52
84593;BME280;74832;51.656;5.298;2024-01-07T01:47:00;101859.27;;;15.82;60.31
84593;BME280;74832;51.656;5.298;2024-01-07T01:47:31;101860.13;;;15.90;60.15
84593;BME280;74832;51.656;5.298;2024-01-07T01:48:01;101863.50;;;15.78;60.54
84593;BME280;74832;51.656;5.298;2024-01-07T01:48:32;101865.74;;;15.77;60.53
84593;BME280;74832;51.656;5.298;2024-01-07T01:49:03;101860.87;;;15.83;60.45
84593;BME280;74832;51.656;5.298;2024-01-07T01:49:33;101862.26;;;15.81;60.23
84593;BME280;74832;51.656;5.298;2024-01-07T01:50:05;101866.55;;;15.78;60.50
84593;BME280;74832;51.656;5.298;2024-01-07T01:50:35;101868.69;;;15.77;60.47
84593;BME280;74832;51.656;5.298;2024-01-07T01:51:06;101867.75;;;15.75;60.44
84593;BME280;74832;51.656;5.298;2024-01-07T01:51:37;101872.69;;;15.70;60.53
84593;BME280;74832;51.656;5.298;2024-01-07T01:52:08;101866.59;;;15.73;60.63
84593;BME280;74832;51.656;5.298;2024-01-07T01:52:39;101869.21;;;15.67;60.73
84593;BME280;74832;51.656;5.298;2024-01-07T01:53:09;101869.11;;;15.76;60.61
84593;BME280;74832;51.656;5.298;2024-01-07T01:53:40;101869.55;;;15.74;60.57
84593;BME280;74832;51.656;5.298;2024-01-07T01:54:11;101869.20;;;15.76;60.45
84593;BME280;74832;51.656;5.298;2024-01-07T01:54:42;101871.55;;;15.73;60.51
84593;BME280;74832;51.656;5.298;2024-01-07T01:55:13;101869.90;;;15.70;60.48
84593;BME280;74832;51.656;5.298;2024-01-07T01:55:43;101870.74;;;15.75;60.45
84593;BME280;74832;51.656;5.298;2024-01-07T01:56:14;101867.78;;;15.75;60.18
84593;BME280;74832;51.656;5.298;2024-01-07T01:56:47;101869.03;;;15.68;60.50
84593;BME280;74832;51.656;5.298;2024-01-07T01:57:20;101868.94;;;15.69;60.39
84593;BME280;74832;51.656;5.298;2024-01-07T01:57:52;101869.14;;;15.66;60.65
84593;BME280;74832;51.656;5.298;2024-01-07T01:58:24;101873.27;;;15.70;60.43
84593;BME280;74832;51.656;5.298;2024-01-07T01:58:55;101872.91;;;15.67;60.58
84593;BME280;74832;51.656;5.298;2024-01-07T01:59:26;101872.70;;;15.63;60.55
84593;BME280;74832;51.656;5.298;2024-01-07T01:59:56;101873.57;;;15.69;60.51
84593;BME280;74832;51.656;5.298;2024-01-07T02:00:27;101876.58;;;15.65;60.60
84593;BME280;74832;51.656;5.298;2024-01-07T02:00:58;101874.67;;;15.64;60.67
84593;BME280;74832;51.656;5.298;2024-01-07T02:01:30;101873.95;;;15.60;60.83
84593;BME280;74832;51.656;5.298;2024-01-07T02:02:01;101873.15;;;15.61;60.73
84593;BME280;74832;51.656;5.298;2024-01-07T02:02:32;101879.17;;;15.70;60.55
84593;BME280;74832;51.656;5.298;2024-01-07T02:03:03;101877.04;;;15.67;60.69
84593;BME280;74832;51.656;5.298;2024-01-07T02:03:33;101873.67;;;15.59;60.77
84593;BME280;74832;51.656;5.298;2024-01-07T02:04:04;101878.02;;;15.61;60.77
84593;BME280;74832;51.656;5.298;2024-01-07T02:04:34;101879.99;;;15.63;60.71
84593;BME280;74832;51.656;5.298;2024-01-07T02:05:05;101875.91;;;15.69;60.62
84593;BME280;74832;51.656;5.298;2024-01-07T02:05:35;101880.15;;;15.64;60.60
84593;BME280;74832;51.656;5.298;2024-01-07T02:06:06;101876.92;;;15.61;60.70
84593;BME280;74832;51.656;5.298;2024-01-07T02:06:37;101876.62;;;15.59;60.81
84593;BME280;74832;51.656;5.298;2024-01-07T02:07:08;101881.76;;;15.69;60.48
84593;BME280;74832;51.656;5.298;2024-01-07T02:07:38;101878.67;;;15.69;60.41
84593;BME280;74832;51.656;5.298;2024-01-07T02:08:09;101880.98;;;15.67;60.49
84593;BME280;74832;51.656;5.298;2024-01-07T02:08:40;101878.09;;;15.67;60.41
84593;BME280;74832;51.656;5.298;2024-01-07T02:09:10;101876.96;;;15.66;60.44
84593;BME280;74832;51.656;5.298;2024-01-07T02:09:41;101881.08;;;15.61;60.47
84593;BME280;74832;51.656;5.298;2024-01-07T02:10:11;101878.10;;;15.58;60.62
84593;BME280;74832;51.656;5.298;2024-01-07T02:10:41;101884.24;;;15.53;60.68
84593;BME280;74832;51.656;5.298;2024-01-07T02:11:16;101881.77;;;15.56;60.55
84593;BME280;74832;51.656;5.298;2024-01-07T02:12:00;101880.56;;;15.50;60.71
84593;BME280;74832;51.656;5.298;2024-01-07T02:12:30;101884.34;;;15.53;60.66
84593;BME280;74832;51.656;5.298;2024-01-07T02:13:01;101885.22;;;15.50;60.69
84593;BME280;74832;51.656;5.298;2024-01-07T02:13:31;101881.67;;;15.58;60.51
84593;BME280;74832;51.656;5.298;2024-01-07T02:14:02;101884.84;;;15.64;60.42
84593;BME280;74832;51.656;5.298;2024-01-07T02:14:32;101884.50;;;15.64;60.43
84593;BME280;74832;51.656;5.298;2024-01-07T02:15:03;101881.89;;;15.63;60.41
84593;BME280;74832;51.656;5.298;2024-01-07T02:15:33;101880.26;;;15.58;60.47
84593;BME280;74832;51.656;5.298;2024-01-07T02:16:04;101883.78;;;15.53;60.66
84593;BME280;74832;51.656;5.298;2024-01-07T02:16:35;101882.44;;;15.58;60.55
84593;BME280;74832;51.656;5.298;2024-01-07T02:17:05;101880.32;;;15.53;60.55
84593;BME280;74832;51.656;5.298;2024-01-07T02:17:36;101884.48;;;15.51;60.65
84593;BME280;74832;51.656;5.298;2024-01-07T02:18:07;101885.20;;;15.60;60.56
84593;BME280;74832;51.656;5.298;2024-01-07T02:18:37;101880.43;;;15.53;60.52
84593;BME280;74832;51.656;5.298;2024-01-07T02:19:08;101882.89;;;15.57;60.39
84593;BME280;74832;51.656;5.298;2024-01-07T02:19:39;101881.06;;;15.58;60.47
84593;BME280;74832;51.656;5.298;2024-01-07T02:20:10;101882.17;;;15.52;60.56
84593;BME280;74832;51.656;5.298;2024-01-07T02:20:40;101884.81;;;15.56;60.45
84593;BME280;74832;51.656;5.298;2024-01-07T02:21:12;101882.68;;;15.59;60.33
84593;BME280;74832;51.656;5.298;2024-01-07T02:21:43;101886.39;;;15.55;60.54
84593;BME280;74832;51.656;5.298;2024-01-07T02:22:13;101882.75;;;15.56;60.44
84593;BME280;74832;51.656;5.298;2024-01-07T02:22:44;101885.86;;;15.60;60.36
84593;BME280;74832;51.656;5.298;2024-01-07T02:23:14;101883.91;;;15.64;60.17
84593;BME280;74832;51.656;5.298;2024-01-07T02:23:45;101887.09;;;15.65;60.20
84593;BME280;74832;51.656;5.298;2024-01-07T02:24:15;101890.49;;;15.59;60.32
84593;BME280;74832;51.656;5.298;2024-01-07T02:24:46;101886.44;;;15.60;60.23
84593;BME280;74832;51.656;5.298;2024-01-07T02:25:16;101888.75;;;15.66;60.06
84593;BME280;74832;51.656;5.298;2024-01-07T02:25:46;101888.53;;;15.68;60.06
84593;BME280;74832;51.656;5.298;2024-01-07T02:26:17;101887.70;;;15.67;59.80
84593;BME280;74832;51.656;5.298;2024-01-07T02:26:47;101885.87;;;15.63;60.05
84593;BME280;74832;51.656;5.298;2024-01-07T02:27:18;101888.84;;;15.63;59.97
84593;BME280;74832;51.656;5.298;2024-01-07T02:27:48;101894.23;;;15.53;60.28
84593;BME280;74832;51.656;5.298;2024-01-07T02:28:18;101885.43;;;15.57;60.31
84593;BME280;74832;51.656;5.298;2024-01-07T02:28:49;101891.75;;;15.56;60.26
84593;BME280;74832;51.656;5.298;2024-01-07T02:29:19;101889.24;;;15.61;60.03
84593;BME280;74832;51.656;5.298;2024-01-07T02:29:49;101888.99;;;15.57;60.28
84593;BME280;74832;51.656;5.298;2024-01-07T02:30:20;101892.51;;;15.61;60.18
84593;BME280;74832;51.656;5.298;2024-01-07T02:30:50;101891.86;;;15.60;60.20
84593;BME280;74832;51.656;5.298;2024-01-07T02:31:21;101890.54;;;15.57;60.20
84593;BME280;74832;51.656;5.298;2024-01-07T02:31:51;101891.30;;;15.43;60.45
84593;BME280;74832;51.656;5.298;2024-01-07T02:32:21;101895.08;;;15.47;60.40
84593;BME280;74832;51.656;5.298;2024-01-07T02:32:52;101895.82;;;15.38;60.57
84593;BME280;74832;51.656;5.298;2024-01-07T02:33:22;101892.09;;;15.44;60.53
84593;BME280;74832;51.656;5.298;2024-01-07T02:33:52;101891.65;;;15.46;60.44
84593;BME280;74832;51.656;5.298;2024-01-07T02:34:23;101894.21;;;15.52;60.28
84593;BME280;74832;51.656;5.298;2024-01-07T02:34:53;101894.51;;;15.52;60.30
84593;BME280;74832;51.656;5.298;2024-01-07T02:35:24;101892.25;;;15.49;60.29
84593;BME280;74832;51.656;5.298;2024-01-07T02:35:54;101896.43;;;15.46;60.30
84593;BME280;74832;51.656;5.298;2024-01-07T02:36:24;101896.78;;;15.52;60.18
84593;BME280;74832;51.656;5.298;2024-01-07T02:36:55;101898.35;;;15.54;60.21
84593;BME280;74832;51.656;5.298;2024-01-07T02:37:25;101895.26;;;15.47;60.31
84593;BME280;74832;51.656;5.298;2024-01-07T02:37:56;101894.67;;;15.49;60.21
84593;BME280;74832;51.656;5.298;2024-01-07T02:38:26;101897.80;;;15.53;60.17
84593;BME280;74832;51.656;5.298;2024-01-07T02:38:56;101900.12;;;15.54;60.07
84593;BME280;74832;51.656;5.298;2024-01-07T02:39:27;101897.26;;;15.51;60.21
84593;BME280;74832;51.656;5.298;2024-01-07T02:39:57;101895.82;;;15.45;60.29